Weather at Sherlock Ultralight Airfield

Public forecast

Using degrees Celsius for public forecast. Weather courtesy of forecast.io.

Closest aviation weather report (METAR) to Sherlock Ultralight Airfield

Closest report is Adelaide International Airport, 65.9 nm (122.1 km) WNW. Retrieved 2020/10/26 19:30 UTC (0 seconds ago):

YPAD 261930Z 14007KT CAVOK 14/09 Q1019 NOSIG

Closest aviation forecast (TAF) to Sherlock Ultralight Airfield

Closest forecast is Adelaide International Airport, 65.9 nm (122.1 km) WNW. Retrieved 2020/10/26 18:00 UTC (1 hour ago):

TAF YPAD 261708Z 2618/2800 16007KT 9999 FEW050 FM270400 21011KT 9999 -SHRA SCT045 FM270900 14008KT CAVOK FM271600 05005KT CAVOK